sensor_id;sensor_type;location;lat;lon;timestamp;temperature;humidity
1594;DHT22;790;47.000;16.084;2022-10-16T00:02:00;11.90;99.90
1594;DHT22;790;47.000;16.084;2022-10-16T00:04:27;11.90;99.90
1594;DHT22;790;47.000;16.084;2022-10-16T00:06:54;11.80;99.90
1594;DHT22;790;47.000;16.084;2022-10-16T00:09:21;11.80;99.90
1594;DHT22;790;47.000;16.084;2022-10-16T00:11:48;11.80;99.90
1594;DHT22;790;47.000;16.084;2022-10-16T00:14:16;11.70;99.90
1594;DHT22;790;47.000;16.084;2022-10-16T00:16:43;11.80;99.90
1594;DHT22;790;47.000;16.084;2022-10-16T00:19:11;11.70;99.90
1594;DHT22;790;47.000;16.084;2022-10-16T00:21:39;11.80;99.90
1594;DHT22;790;47.000;16.084;2022-10-16T00:24:07;11.80;99.90
1594;DHT22;790;47.000;16.084;2022-10-16T00:26:36;11.80;99.90
1594;DHT22;790;47.000;16.084;2022-10-16T00:29:04;11.90;99.90
1594;DHT22;790;47.000;16.084;2022-10-16T00:31:32;12.00;99.90
1594;DHT22;790;47.000;16.084;2022-10-16T00:33:59;12.00;99.90
1594;DHT22;790;47.000;16.084;2022-10-16T00:36:28;12.00;99.90
1594;DHT22;790;47.000;16.084;2022-10-16T00:38:57;12.10;99.90
1594;DHT22;790;47.000;16.084;2022-10-16T00:41:26;12.20;99.90
1594;DHT22;790;47.000;16.084;2022-10-16T00:43:55;12.10;99.90
1594;DHT22;790;47.000;16.084;2022-10-16T00:46:24;12.20;99.90
1594;DHT22;790;47.000;16.084;2022-10-16T00:48:55;12.20;99.90
1594;DHT22;790;47.000;16.084;2022-10-16T00:51:34;12.20;99.90
1594;DHT22;790;47.000;16.084;2022-10-16T00:54:03;12.20;99.90
1594;DHT22;790;47.000;16.084;2022-10-16T00:56:32;12.20;99.90
1594;DHT22;790;47.000;16.084;2022-10-16T00:59:02;12.30;99.90
1594;DHT22;790;47.000;16.084;2022-10-16T01:01:30;12.30;99.90
1594;DHT22;790;47.000;16.084;2022-10-16T01:03:57;12.40;99.90
1594;DHT22;790;47.000;16.084;2022-10-16T01:06:28;12.40;99.90
1594;DHT22;790;47.000;16.084;2022-10-16T01:09:13;12.40;99.90
1594;DHT22;790;47.000;16.084;2022-10-16T01:11:45;12.30;99.90
1594;DHT22;790;47.000;16.084;2022-10-16T01:14:20;12.40;99.90
1594;DHT22;790;47.000;16.084;2022-10-16T01:16:53;12.50;99.90
1594;DHT22;790;47.000;16.084;2022-10-16T01:19:34;12.50;99.90
1594;DHT22;790;47.000;16.084;2022-10-16T01:22:04;12.60;99.90
1594;DHT22;790;47.000;16.084;2022-10-16T01:24:38;12.50;99.90
1594;DHT22;790;47.000;16.084;2022-10-16T01:27:09;12.50;99.90
1594;DHT22;790;47.000;16.084;2022-10-16T01:29:42;12.50;99.90
1594;DHT22;790;47.000;16.084;2022-10-16T01:32:19;12.50;99.90
1594;DHT22;790;47.000;16.084;2022-10-16T01:34:50;12.60;99.90
1594;DHT22;790;47.000;16.084;2022-10-16T01:37:25;12.60;99.90
1594;DHT22;790;47.000;16.084;2022-10-16T01:39:56;12.60;99.90
1594;DHT22;790;47.000;16.084;2022-10-16T01:42:29;12.60;99.90
1594;DHT22;790;47.000;16.084;2022-10-16T01:44:59;12.60;99.90
1594;DHT22;790;47.000;16.084;2022-10-16T01:47:27;12.60;99.90
1594;DHT22;790;47.000;16.084;2022-10-16T01:49:58;12.50;99.90
1594;DHT22;790;47.000;16.084;2022-10-16T01:52:28;12.50;99.90
1594;DHT22;790;47.000;16.084;2022-10-16T01:54:57;12.50;99.90
1594;DHT22;790;47.000;16.084;2022-10-16T01:57:27;12.50;99.90
1594;DHT22;790;47.000;16.084;2022-10-16T01:59:58;12.50;99.90
1594;DHT22;790;47.000;16.084;2022-10-16T02:02:28;12.50;99.90
1594;DHT22;790;47.000;16.084;2022-10-16T02:05:03;12.50;99.90
1594;DHT22;790;47.000;16.084;2022-10-16T02:07:31;12.40;99.90
1594;DHT22;790;47.000;16.084;2022-10-16T02:09:59;12.40;99.90
1594;DHT22;790;47.000;16.084;2022-10-16T02:12:31;12.40;99.90
1594;DHT22;790;47.000;16.084;2022-10-16T02:15:00;12.50;99.90
1594;DHT22;790;47.000;16.084;2022-10-16T02:17:28;12.50;99.90
1594;DHT22;790;47.000;16.084;2022-10-16T02:19:56;12.50;99.90
1594;DHT22;790;47.000;16.084;2022-10-16T02:22:28;12.50;99.90
1594;DHT22;790;47.000;16.084;2022-10-16T02:24:59;12.50;99.90
1594;DHT22;790;47.000;16.084;2022-10-16T02:27:34;12.50;99.90
1594;DHT22;790;47.000;16.084;2022-10-16T02:30:07;12.50;99.90
1594;DHT22;790;47.000;16.084;2022-10-16T02:32:40;12.50;99.90
1594;DHT22;790;47.000;16.084;2022-10-16T02:35:09;12.50;99.90
1594;DHT22;790;47.000;16.084;2022-10-16T02:37:37;12.50;99.90
1594;DHT22;790;47.000;16.084;2022-10-16T02:40:07;12.50;99.90
1594;DHT22;790;47.000;16.084;2022-10-16T02:42:38;12.60;99.90
1594;DHT22;790;47.000;16.084;2022-10-16T02:45:07;12.50;99.90
1594;DHT22;790;47.000;16.084;2022-10-16T02:47:35;12.50;99.90
1594;DHT22;790;47.000;16.084;2022-10-16T02:50:03;12.50;99.90
1594;DHT22;790;47.000;16.084;2022-10-16T02:52:30;12.60;99.90
1594;DHT22;790;47.000;16.084;2022-10-16T02:54:57;12.60;99.90
1594;DHT22;790;47.000;16.084;2022-10-16T02:57:24;12.60;99.90
1594;DHT22;790;47.000;16.084;2022-10-16T02:59:52;12.60;99.90
1594;DHT22;790;47.000;16.084;2022-10-16T03:02:20;12.60;99.90
1594;DHT22;790;47.000;16.084;2022-10-16T03:04:47;12.60;99.90
1594;DHT22;790;47.000;16.084;2022-10-16T03:07:14;12.60;99.90
1594;DHT22;790;47.000;16.084;2022-10-16T03:09:41;12.60;99.90
1594;DHT22;790;47.000;16.084;2022-10-16T03:12:08;12.60;99.90
1594;DHT22;790;47.000;16.084;2022-10-16T03:14:35;12.50;99.90
1594;DHT22;790;47.000;16.084;2022-10-16T03:17:03;12.60;99.90
1594;DHT22;790;47.000;16.084;2022-10-16T03:19:30;12.60;99.90
1594;DHT22;790;47.000;16.084;2022-10-16T03:21:57;12.60;99.90
1594;DHT22;790;47.000;16.084;2022-10-16T03:24:24;12.60;99.90
1594;DHT22;790;47.000;16.084;2022-10-16T03:26:51;12.70;99.90
1594;DHT22;790;47.000;16.084;2022-10-16T03:29:18;12.70;99.90
1594;DHT22;790;47.000;16.084;2022-10-16T03:31:45;12.60;99.90
1594;DHT22;790;47.000;16.084;2022-10-16T03:34:15;12.60;99.90
1594;DHT22;790;47.000;16.084;2022-10-16T03:36:42;12.60;99.90
1594;DHT22;790;47.000;16.084;2022-10-16T03:39:09;12.60;99.90
1594;DHT22;790;47.000;16.084;2022-10-16T03:41:36;12.70;99.90
1594;DHT22;790;47.000;16.084;2022-10-16T03:44:03;12.60;99.90
1594;DHT22;790;47.000;16.084;2022-10-16T03:46:30;12.70;99.90
1594;DHT22;790;47.000;16.084;2022-10-16T03:48:57;12.70;99.90
1594;DHT22;790;47.000;16.084;2022-10-16T03:51:26;12.70;99.90
1594;DHT22;790;47.000;16.084;2022-10-16T03:53:53;12.70;99.90
1594;DHT22;790;47.000;16.084;2022-10-16T03:56:20;12.70;99.90
1594;DHT22;790;47.000;16.084;2022-10-16T03:58:47;12.70;99.90
1594;DHT22;790;47.000;16.084;2022-10-16T04:01:14;12.70;99.90
1594;DHT22;790;47.000;16.084;2022-10-16T04:03:41;12.70;99.90
1594;DHT22;790;47.000;16.084;2022-10-16T04:06:08;12.80;99.90
1594;DHT22;790;47.000;16.084;2022-10-16T04:08:37;12.80;99.90
1594;DHT22;790;47.000;16.084;2022-10-16T04:11:05;12.80;99.90
1594;DHT22;790;47.000;16.084;2022-10-16T04:13:32;12.80;99.90
1594;DHT22;790;47.000;16.084;2022-10-16T04:15:59;12.80;99.90
1594;DHT22;790;47.000;16.084;2022-10-16T04:18:26;12.80;99.90
1594;DHT22;790;47.000;16.084;2022-10-16T04:20:53;12.80;99.90
1594;DHT22;790;47.000;16.084;2022-10-16T04:23:21;12.70;99.90
1594;DHT22;790;47.000;16.084;2022-10-16T04:25:50;12.50;99.90
1594;DHT22;790;47.000;16.084;2022-10-16T04:28:18;12.60;99.90
1594;DHT22;790;47.000;16.084;2022-10-16T04:30:45;12.50;99.90
1594;DHT22;790;47.000;16.084;2022-10-16T04:33:12;12.40;99.90
1594;DHT22;790;47.000;16.084;2022-10-16T04:35:39;12.50;99.90
1594;DHT22;790;47.000;16.084;2022-10-16T04:38:06;12.50;99.90
1594;DHT22;790;47.000;16.084;2022-10-16T04:40:34;12.40;99.90
1594;DHT22;790;47.000;16.084;2022-10-16T04:43:03;12.50;99.90
1594;DHT22;790;47.000;16.084;2022-10-16T04:45:30;12.50;99.90
1594;DHT22;790;47.000;16.084;2022-10-16T04:47:58;12.60;99.90
1594;DHT22;790;47.000;16.084;2022-10-16T04:50:26;12.60;99.90
1594;DHT22;790;47.000;16.084;2022-10-16T04:52:53;12.70;99.90
1594;DHT22;790;47.000;16.084;2022-10-16T04:55:20;12.70;99.90
1594;DHT22;790;47.000;16.084;2022-10-16T04:57:47;12.60;99.90
1594;DHT22;790;47.000;16.084;2022-10-16T05:00:16;12.50;99.90
1594;DHT22;790;47.000;16.084;2022-10-16T05:02:43;12.50;99.90
1594;DHT22;790;47.000;16.084;2022-10-16T05:05:10;12.60;99.90
1594;DHT22;790;47.000;16.084;2022-10-16T05:07:37;12.60;99.90
1594;DHT22;790;47.000;16.084;2022-10-16T05:10:05;12.60;99.90
1594;DHT22;790;47.000;16.084;2022-10-16T05:12:33;12.60;99.90
1594;DHT22;790;47.000;16.084;2022-10-16T05:15:00;12.50;99.90
1594;DHT22;790;47.000;16.084;2022-10-16T05:17:29;12.40;99.90
1594;DHT22;790;47.000;16.084;2022-10-16T05:19:56;12.40;99.90
1594;DHT22;790;47.000;16.084;2022-10-16T05:22:23;12.40;99.90
1594;DHT22;790;47.000;16.084;2022-10-16T05:24:50;12.50;99.90
1594;DHT22;790;47.000;16.084;2022-10-16T05:27:17;12.50;99.90
1594;DHT22;790;47.000;16.084;2022-10-16T05:29:45;12.60;99.90
1594;DHT22;790;47.000;16.084;2022-10-16T05:32:13;12.60;99.90
1594;DHT22;790;47.000;16.084;2022-10-16T05:34:42;12.50;99.90
1594;DHT22;790;47.000;16.084;2022-10-16T05:37:09;12.50;99.90
1594;DHT22;790;47.000;16.084;2022-10-16T05:39:37;12.50;99.90
1594;DHT22;790;47.000;16.084;2022-10-16T05:42:04;12.50;99.90
1594;DHT22;790;47.000;16.084;2022-10-16T05:44:32;12.60;99.90
1594;DHT22;790;47.000;16.084;2022-10-16T05:46:59;12.60;99.90
1594;DHT22;790;47.000;16.084;2022-10-16T05:49:26;12.60;99.90
1594;DHT22;790;47.000;16.084;2022-10-16T05:51:54;12.60;99.90
1594;DHT22;790;47.000;16.084;2022-10-16T05:54:21;12.60;99.90
1594;DHT22;790;47.000;16.084;2022-10-16T05:56:49;12.70;99.90
1594;DHT22;790;47.000;16.084;2022-10-16T05:59:15;12.60;99.90
1594;DHT22;790;47.000;16.084;2022-10-16T06:01:43;12.60;99.90
1594;DHT22;790;47.000;16.084;2022-10-16T06:04:10;12.60;99.90
1594;DHT22;790;47.000;16.084;2022-10-16T06:06:37;12.60;99.90
1594;DHT22;790;47.000;16.084;2022-10-16T06:09:05;12.70;99.90
1594;DHT22;790;47.000;16.084;2022-10-16T06:11:33;12.70;99.90
1594;DHT22;790;47.000;16.084;2022-10-16T06:14:01;12.70;99.90
1594;DHT22;790;47.000;16.084;2022-10-16T06:16:32;12.70;99.90
1594;DHT22;790;47.000;16.084;2022-10-16T06:19:00;12.70;99.90
1594;DHT22;790;47.000;16.084;2022-10-16T06:21:28;12.70;99.90
1594;DHT22;790;47.000;16.084;2022-10-16T06:23:56;12.80;99.90
1594;DHT22;790;47.000;16.084;2022-10-16T06:26:26;12.80;99.90
1594;DHT22;790;47.000;16.084;2022-10-16T06:28:54;12.80;99.90
1594;DHT22;790;47.000;16.084;2022-10-16T06:31:22;12.90;99.90
1594;DHT22;790;47.000;16.084;2022-10-16T06:33:53;12.90;99.90
1594;DHT22;790;47.000;16.084;2022-10-16T06:36:22;12.90;99.90
1594;DHT22;790;47.000;16.084;2022-10-16T06:38:49;12.90;99.90
1594;DHT22;790;47.000;16.084;2022-10-16T06:41:18;13.00;99.90
1594;DHT22;790;47.000;16.084;2022-10-16T06:43:46;13.00;99.90
1594;DHT22;790;47.000;16.084;2022-10-16T06:46:15;13.10;99.90
1594;DHT22;790;47.000;16.084;2022-10-16T06:48:43;13.10;99.90
1594;DHT22;790;47.000;16.084;2022-10-16T06:51:11;13.10;99.90
1594;DHT22;790;47.000;16.084;2022-10-16T06:53:40;13.00;99.90
1594;DHT22;790;47.000;16.084;2022-10-16T06:56:09;13.10;99.90
1594;DHT22;790;47.000;16.084;2022-10-16T06:58:36;13.10;99.90
1594;DHT22;790;47.000;16.084;2022-10-16T07:01:05;13.10;99.90
1594;DHT22;790;47.000;16.084;2022-10-16T07:03:33;13.10;99.90
1594;DHT22;790;47.000;16.084;2022-10-16T07:06:04;13.10;99.90
1594;DHT22;790;47.000;16.084;2022-10-16T07:08:32;13.10;99.90
1594;DHT22;790;47.000;16.084;2022-10-16T07:11:00;13.20;99.90
1594;DHT22;790;47.000;16.084;2022-10-16T07:13:27;13.30;99.90
1594;DHT22;790;47.000;16.084;2022-10-16T07:15:55;13.30;99.90
1594;DHT22;790;47.000;16.084;2022-10-16T07:18:23;13.30;99.90
1594;DHT22;790;47.000;16.084;2022-10-16T07:20:52;13.40;99.90
1594;DHT22;790;47.000;16.084;2022-10-16T07:23:20;13.40;99.90
1594;DHT22;790;47.000;16.084;2022-10-16T07:25:53;13.40;99.90
1594;DHT22;790;47.000;16.084;2022-10-16T07:28:21;13.40;99.90
1594;DHT22;790;47.000;16.084;2022-10-16T07:30:48;13.50;99.90
1594;DHT22;790;47.000;16.084;2022-10-16T07:33:15;13.60;99.90
1594;DHT22;790;47.000;16.084;2022-10-16T07:35:49;13.70;99.90
1594;DHT22;790;47.000;16.084;2022-10-16T07:38:17;13.80;99.90
1594;DHT22;790;47.000;16.084;2022-10-16T07:40:45;13.80;99.90
1594;DHT22;790;47.000;16.084;2022-10-16T07:43:13;13.90;99.90
1594;DHT22;790;47.000;16.084;2022-10-16T07:45:50;14.00;99.90
1594;DHT22;790;47.000;16.084;2022-10-16T07:48:18;14.10;99.90
1594;DHT22;790;47.000;16.084;2022-10-16T07:50:46;14.20;99.90
1594;DHT22;790;47.000;16.084;2022-10-16T07:53:14;14.30;99.90
1594;DHT22;790;47.000;16.084;2022-10-16T07:55:41;14.50;99.90
1594;DHT22;790;47.000;16.084;2022-10-16T07:58:09;14.50;99.90
1594;DHT22;790;47.000;16.084;2022-10-16T08:00:37;14.60;99.90
1594;DHT22;790;47.000;16.084;2022-10-16T08:03:04;14.60;99.90
1594;DHT22;790;47.000;16.084;2022-10-16T08:05:32;14.70;99.90
1594;DHT22;790;47.000;16.084;2022-10-16T08:08:00;14.80;99.90
1594;DHT22;790;47.000;16.084;2022-10-16T08:10:33;14.90;99.90
1594;DHT22;790;47.000;16.084;2022-10-16T08:13:00;15.00;99.90
1594;DHT22;790;47.000;16.084;2022-10-16T08:15:27;14.90;99.90
1594;DHT22;790;47.000;16.084;2022-10-16T08:17:58;15.00;99.90
1594;DHT22;790;47.000;16.084;2022-10-16T08:20:26;15.00;99.90
1594;DHT22;790;47.000;16.084;2022-10-16T08:22:53;15.10;99.90
1594;DHT22;790;47.000;16.084;2022-10-16T08:25:21;15.20;99.90
1594;DHT22;790;47.000;16.084;2022-10-16T08:27:50;15.30;99.90
1594;DHT22;790;47.000;16.084;2022-10-16T08:30:19;15.30;99.90
1594;DHT22;790;47.000;16.084;2022-10-16T08:32:46;15.50;99.90
1594;DHT22;790;47.000;16.084;2022-10-16T08:35:14;15.60;99.90
1594;DHT22;790;47.000;16.084;2022-10-16T08:37:42;15.60;99.90
1594;DHT22;790;47.000;16.084;2022-10-16T08:40:17;15.60;99.90
1594;DHT22;790;47.000;16.084;2022-10-16T08:43:04;15.70;99.90
1594;DHT22;790;47.000;16.084;2022-10-16T08:45:42;15.80;99.90
1594;DHT22;790;47.000;16.084;2022-10-16T08:48:18;15.90;99.90
1594;DHT22;790;47.000;16.084;2022-10-16T08:50:48;16.00;99.90
1594;DHT22;790;47.000;16.084;2022-10-16T08:53:20;16.10;99.90
1594;DHT22;790;47.000;16.084;2022-10-16T08:55:50;16.30;99.90
1594;DHT22;790;47.000;16.084;2022-10-16T08:58:21;16.40;99.90
1594;DHT22;790;47.000;16.084;2022-10-16T09:00:51;16.50;99.90
1594;DHT22;790;47.000;16.084;2022-10-16T09:03:39;16.70;99.90
1594;DHT22;790;47.000;16.084;2022-10-16T09:06:14;16.80;99.90
1594;DHT22;790;47.000;16.084;2022-10-16T09:08:51;16.90;99.90
1594;DHT22;790;47.000;16.084;2022-10-16T09:11:33;16.90;99.90
1594;DHT22;790;47.000;16.084;2022-10-16T09:14:11;16.90;99.90
1594;DHT22;790;47.000;16.084;2022-10-16T09:16:48;16.80;99.90
1594;DHT22;790;47.000;16.084;2022-10-16T09:19:22;16.90;99.90
1594;DHT22;790;47.000;16.084;2022-10-16T09:21:51;17.00;99.90
1594;DHT22;790;47.000;16.084;2022-10-16T09:24:20;17.10;99.90
1594;DHT22;790;47.000;16.084;2022-10-16T09:26:48;17.10;99.90
1594;DHT22;790;47.000;16.084;2022-10-16T09:29:18;17.20;99.90
1594;DHT22;790;47.000;16.084;2022-10-16T09:31:47;17.30;99.90
1594;DHT22;790;47.000;16.084;2022-10-16T09:34:30;17.40;99.90
1594;DHT22;790;47.000;16.084;2022-10-16T09:36:59;17.40;99.90
1594;DHT22;790;47.000;16.084;2022-10-16T09:39:28;17.60;99.90
1594;DHT22;790;47.000;16.084;2022-10-16T09:41:56;17.50;99.90
1594;DHT22;790;47.000;16.084;2022-10-16T09:44:27;17.50;99.90
1594;DHT22;790;47.000;16.084;2022-10-16T09:47:02;17.50;99.90
1594;DHT22;790;47.000;16.084;2022-10-16T09:49:29;17.70;99.90
1594;DHT22;790;47.000;16.084;2022-10-16T09:52:04;17.90;99.90
1594;DHT22;790;47.000;16.084;2022-10-16T09:54:31;17.90;99.90
1594;DHT22;790;47.000;16.084;2022-10-16T09:57:05;18.00;99.90
1594;DHT22;790;47.000;16.084;2022-10-16T09:59:34;18.10;99.90
1594;DHT22;790;47.000;16.084;2022-10-16T10:02:14;18.10;99.90
1594;DHT22;790;47.000;16.084;2022-10-16T10:04:50;18.10;99.90
1594;DHT22;790;47.000;16.084;2022-10-16T10:07:24;18.20;99.90
1594;DHT22;790;47.000;16.084;2022-10-16T10:09:52;18.30;99.90
1594;DHT22;790;47.000;16.084;2022-10-16T10:12:21;18.40;99.90
1594;DHT22;790;47.000;16.084;2022-10-16T10:14:51;18.50;99.90
1594;DHT22;790;47.000;16.084;2022-10-16T10:17:21;18.40;99.90
1594;DHT22;790;47.000;16.084;2022-10-16T10:19:51;18.50;99.90
1594;DHT22;790;47.000;16.084;2022-10-16T10:22:27;18.60;99.90
1594;DHT22;790;47.000;16.084;2022-10-16T10:25:20;18.60;99.90
1594;DHT22;790;47.000;16.084;2022-10-16T10:28:04;18.70;99.90
1594;DHT22;790;47.000;16.084;2022-10-16T10:30:40;18.80;99.90
1594;DHT22;790;47.000;16.084;2022-10-16T10:33:19;18.90;99.90
1594;DHT22;790;47.000;16.084;2022-10-16T10:35:56;19.00;99.90
1594;DHT22;790;47.000;16.084;2022-10-16T10:38:38;19.00;99.90
1594;DHT22;790;47.000;16.084;2022-10-16T10:44:21;19.20;99.90
1594;DHT22;790;47.000;16.084;2022-10-16T10:46:57;19.30;99.90
1594;DHT22;790;47.000;16.084;2022-10-16T10:49:45;19.30;99.90
1594;DHT22;790;47.000;16.084;2022-10-16T10:52:48;19.40;99.90
1594;DHT22;790;47.000;16.084;2022-10-16T10:55:23;19.40;99.90
1594;DHT22;790;47.000;16.084;2022-10-16T10:58:17;19.40;99.90
1594;DHT22;790;47.000;16.084;2022-10-16T11:00:57;19.40;99.90
1594;DHT22;790;47.000;16.084;2022-10-16T11:03:35;19.50;99.90
1594;DHT22;790;47.000;16.084;2022-10-16T11:06:12;19.50;99.90
1594;DHT22;790;47.000;16.084;2022-10-16T11:08:46;19.60;99.90
1594;DHT22;790;47.000;16.084;2022-10-16T11:11:19;19.60;99.90
1594;DHT22;790;47.000;16.084;2022-10-16T11:13:54;19.60;99.90
1594;DHT22;790;47.000;16.084;2022-10-16T11:16:26;19.70;99.90
1594;DHT22;790;47.000;16.084;2022-10-16T11:18:59;19.80;99.90
1594;DHT22;790;47.000;16.084;2022-10-16T11:21:34;19.90;99.90
1594;DHT22;790;47.000;16.084;2022-10-16T11:24:06;19.90;99.90
1594;DHT22;790;47.000;16.084;2022-10-16T11:26:40;19.90;99.90
1594;DHT22;790;47.000;16.084;2022-10-16T11:29:12;20.00;99.90
1594;DHT22;790;47.000;16.084;2022-10-16T11:31:45;20.00;99.90
1594;DHT22;790;47.000;16.084;2022-10-16T11:34:21;20.00;99.90
1594;DHT22;790;47.000;16.084;2022-10-16T11:36:51;20.00;99.90
1594;DHT22;790;47.000;16.084;2022-10-16T11:39:21;20.10;99.90
1594;DHT22;790;47.000;16.084;2022-10-16T11:41:52;20.20;99.90
1594;DHT22;790;47.000;16.084;2022-10-16T11:44:42;20.20;99.90
1594;DHT22;790;47.000;16.084;2022-10-16T11:47:25;20.30;99.90
1594;DHT22;790;47.000;16.084;2022-10-16T11:49:58;20.30;99.90
1594;DHT22;790;47.000;16.084;2022-10-16T11:52:32;20.30;99.90
1594;DHT22;790;47.000;16.084;2022-10-16T11:55:05;20.30;99.90
1594;DHT22;790;47.000;16.084;2022-10-16T11:57:42;20.40;99.90
1594;DHT22;790;47.000;16.084;2022-10-16T12:00:20;20.40;99.90
1594;DHT22;790;47.000;16.084;2022-10-16T12:02:54;20.50;99.90
1594;DHT22;790;47.000;16.084;2022-10-16T12:05:31;20.50;99.90
1594;DHT22;790;47.000;16.084;2022-10-16T12:08:08;20.50;99.90
1594;DHT22;790;47.000;16.084;2022-10-16T12:10:38;20.50;99.90
1594;DHT22;790;47.000;16.084;2022-10-16T12:13:29;20.60;99.90
1594;DHT22;790;47.000;16.084;2022-10-16T12:18:47;20.70;99.90
1594;DHT22;790;47.000;16.084;2022-10-16T12:21:17;20.80;99.90
1594;DHT22;790;47.000;16.084;2022-10-16T12:23:49;20.70;99.90
1594;DHT22;790;47.000;16.084;2022-10-16T12:26:25;20.70;99.90
1594;DHT22;790;47.000;16.084;2022-10-16T12:28:54;20.70;99.90
1594;DHT22;790;47.000;16.084;2022-10-16T12:31:22;20.80;99.90
1594;DHT22;790;47.000;16.084;2022-10-16T12:33:57;20.80;99.90
1594;DHT22;790;47.000;16.084;2022-10-16T12:36:31;20.90;99.90
1594;DHT22;790;47.000;16.084;2022-10-16T12:38:59;20.80;99.90
1594;DHT22;790;47.000;16.084;2022-10-16T12:41:29;20.80;99.90
1594;DHT22;790;47.000;16.084;2022-10-16T12:43:57;20.90;99.90
1594;DHT22;790;47.000;16.084;2022-10-16T12:46:38;20.90;99.90
1594;DHT22;790;47.000;16.084;2022-10-16T12:49:19;20.90;99.90
1594;DHT22;790;47.000;16.084;2022-10-16T12:51:49;20.90;99.90
1594;DHT22;790;47.000;16.084;2022-10-16T12:54:18;20.80;99.90
1594;DHT22;790;47.000;16.084;2022-10-16T12:56:53;20.80;99.90
1594;DHT22;790;47.000;16.084;2022-10-16T12:59:31;20.80;99.90
1594;DHT22;790;47.000;16.084;2022-10-16T13:02:18;20.80;99.90
1594;DHT22;790;47.000;16.084;2022-10-16T13:05:02;20.80;99.90
1594;DHT22;790;47.000;16.084;2022-10-16T13:07:43;20.80;99.90
1594;DHT22;790;47.000;16.084;2022-10-16T13:10:21;20.70;99.90
1594;DHT22;790;47.000;16.084;2022-10-16T13:13:12;20.70;99.90
1594;DHT22;790;47.000;16.084;2022-10-16T13:15:57;20.60;99.90
1594;DHT22;790;47.000;16.084;2022-10-16T13:18:33;20.50;99.90
1594;DHT22;790;47.000;16.084;2022-10-16T13:21:11;20.50;99.90
1594;DHT22;790;47.000;16.084;2022-10-16T13:23:48;20.40;99.90
1594;DHT22;790;47.000;16.084;2022-10-16T13:26:26;20.40;99.90
1594;DHT22;790;47.000;16.084;2022-10-16T13:28:59;20.40;99.90
1594;DHT22;790;47.000;16.084;2022-10-16T13:31:26;20.30;99.90
1594;DHT22;790;47.000;16.084;2022-10-16T13:33:56;20.30;99.90
1594;DHT22;790;47.000;16.084;2022-10-16T13:36:26;20.20;99.90
1594;DHT22;790;47.000;16.084;2022-10-16T13:39:09;20.10;99.90
1594;DHT22;790;47.000;16.084;2022-10-16T13:41:37;20.20;99.90
1594;DHT22;790;47.000;16.084;2022-10-16T13:44:07;20.10;99.90
1594;DHT22;790;47.000;16.084;2022-10-16T13:46:35;20.10;99.90
1594;DHT22;790;47.000;16.084;2022-10-16T13:49:04;20.10;99.90
1594;DHT22;790;47.000;16.084;2022-10-16T13:51:32;20.20;99.90
1594;DHT22;790;47.000;16.084;2022-10-16T13:54:00;20.20;99.90
1594;DHT22;790;47.000;16.084;2022-10-16T13:56:30;20.20;99.90
1594;DHT22;790;47.000;16.084;2022-10-16T13:59:01;20.20;99.90
1594;DHT22;790;47.000;16.084;2022-10-16T14:01:30;20.20;99.90
1594;DHT22;790;47.000;16.084;2022-10-16T14:04:03;20.10;99.90
1594;DHT22;790;47.000;16.084;2022-10-16T14:06:31;20.00;99.90
1594;DHT22;790;47.000;16.084;2022-10-16T14:09:03;20.00;99.90
1594;DHT22;790;47.000;16.084;2022-10-16T14:11:33;20.00;99.90
1594;DHT22;790;47.000;16.084;2022-10-16T14:14:04;20.00;99.90
1594;DHT22;790;47.000;16.084;2022-10-16T14:16:32;19.90;99.90
1594;DHT22;790;47.000;16.084;2022-10-16T14:19:01;19.80;99.90
1594;DHT22;790;47.000;16.084;2022-10-16T14:21:30;19.80;99.90
1594;DHT22;790;47.000;16.084;2022-10-16T14:23:57;19.80;99.90
1594;DHT22;790;47.000;16.084;2022-10-16T14:26:26;19.80;99.90
1594;DHT22;790;47.000;16.084;2022-10-16T14:29:19;19.80;99.90
1594;DHT22;790;47.000;16.084;2022-10-16T14:31:54;19.70;99.90
1594;DHT22;790;47.000;16.084;2022-10-16T14:34:28;19.60;99.90
1594;DHT22;790;47.000;16.084;2022-10-16T14:36:59;19.60;99.90
1594;DHT22;790;47.000;16.084;2022-10-16T14:39:33;19.50;99.90
1594;DHT22;790;47.000;16.084;2022-10-16T14:42:00;19.30;99.90
1594;DHT22;790;47.000;16.084;2022-10-16T14:44:31;19.30;99.90
1594;DHT22;790;47.000;16.084;2022-10-16T14:47:07;19.30;99.90
1594;DHT22;790;47.000;16.084;2022-10-16T14:49:34;19.20;99.90
1594;DHT22;790;47.000;16.084;2022-10-16T14:52:04;19.10;99.90
1594;DHT22;790;47.000;16.084;2022-10-16T14:54:32;19.10;99.90
1594;DHT22;790;47.000;16.084;2022-10-16T14:56:59;19.10;99.90
1594;DHT22;790;47.000;16.084;2022-10-16T14:59:32;19.00;99.90
1594;DHT22;790;47.000;16.084;2022-10-16T15:02:02;19.00;99.90
1594;DHT22;790;47.000;16.084;2022-10-16T15:04:33;18.90;99.90
1594;DHT22;790;47.000;16.084;2022-10-16T15:07:00;18.80;99.90
1594;DHT22;790;47.000;16.084;2022-10-16T15:09:27;18.70;99.90
1594;DHT22;790;47.000;16.084;2022-10-16T15:11:54;18.60;99.90
1594;DHT22;790;47.000;16.084;2022-10-16T15:14:21;18.60;99.90
1594;DHT22;790;47.000;16.084;2022-10-16T15:16:50;18.50;99.90
1594;DHT22;790;47.000;16.084;2022-10-16T15:19:17;18.40;99.90
1594;DHT22;790;47.000;16.084;2022-10-16T15:21:44;18.30;99.90
1594;DHT22;790;47.000;16.084;2022-10-16T15:24:13;18.20;99.90
1594;DHT22;790;47.000;16.084;2022-10-16T15:26:41;18.00;99.90
1594;DHT22;790;47.000;16.084;2022-10-16T15:29:08;17.90;99.90
1594;DHT22;790;47.000;16.084;2022-10-16T15:31:35;17.90;99.90
1594;DHT22;790;47.000;16.084;2022-10-16T15:34:04;17.90;99.90
1594;DHT22;790;47.000;16.084;2022-10-16T15:36:34;17.80;99.90
1594;DHT22;790;47.000;16.084;2022-10-16T15:39:03;17.60;99.90
1594;DHT22;790;47.000;16.084;2022-10-16T15:41:30;17.60;99.90
1594;DHT22;790;47.000;16.084;2022-10-16T15:43:57;17.50;99.90
1594;DHT22;790;47.000;16.084;2022-10-16T15:46:24;17.40;99.90
1594;DHT22;790;47.000;16.084;2022-10-16T15:48:56;17.30;99.90
1594;DHT22;790;47.000;16.084;2022-10-16T15:51:25;17.20;99.90
1594;DHT22;790;47.000;16.084;2022-10-16T15:53:55;17.10;99.90
1594;DHT22;790;47.000;16.084;2022-10-16T15:56:22;17.00;99.90
1594;DHT22;790;47.000;16.084;2022-10-16T15:58:51;16.90;99.90
1594;DHT22;790;47.000;16.084;2022-10-16T16:01:19;16.90;99.90
1594;DHT22;790;47.000;16.084;2022-10-16T16:03:46;16.80;99.90
1594;DHT22;790;47.000;16.084;2022-10-16T16:06:14;16.70;99.90
1594;DHT22;790;47.000;16.084;2022-10-16T16:08:42;16.70;99.90
1594;DHT22;790;47.000;16.084;2022-10-16T16:11:10;16.60;99.90
1594;DHT22;790;47.000;16.084;2022-10-16T16:13:38;16.50;99.90
1594;DHT22;790;47.000;16.084;2022-10-16T16:16:06;16.40;99.90
1594;DHT22;790;47.000;16.084;2022-10-16T16:18:34;16.30;99.90
1594;DHT22;790;47.000;16.084;2022-10-16T16:21:01;16.30;99.90
1594;DHT22;790;47.000;16.084;2022-10-16T16:23:28;16.30;99.90
1594;DHT22;790;47.000;16.084;2022-10-16T16:26:09;16.30;99.90
1594;DHT22;790;47.000;16.084;2022-10-16T16:28:37;16.20;99.90
1594;DHT22;790;47.000;16.084;2022-10-16T16:31:04;16.20;99.90